sensor_id;sensor_type;location;lat;lon;timestamp;temperature;humidity
13982;DHT22;7065;50.880;5.502;2024-01-25T00:00:32;8.50;99.90
13982;DHT22;7065;50.880;5.502;2024-01-25T00:02:57;8.50;99.90
13982;DHT22;7065;50.880;5.502;2024-01-25T00:05:24;8.50;99.90
13982;DHT22;7065;50.880;5.502;2024-01-25T00:07:50;8.50;99.90
13982;DHT22;7065;50.880;5.502;2024-01-25T00:10:19;8.40;99.90
13982;DHT22;7065;50.880;5.502;2024-01-25T00:12:44;8.40;99.90
13982;DHT22;7065;50.880;5.502;2024-01-25T00:15:10;8.40;99.90
13982;DHT22;7065;50.880;5.502;2024-01-25T00:17:36;8.30;99.90
13982;DHT22;7065;50.880;5.502;2024-01-25T00:20:03;8.30;99.90
13982;DHT22;7065;50.880;5.502;2024-01-25T00:22:29;8.30;99.90
13982;DHT22;7065;50.880;5.502;2024-01-25T00:24:55;8.30;99.90
13982;DHT22;7065;50.880;5.502;2024-01-25T00:27:20;8.30;99.90
13982;DHT22;7065;50.880;5.502;2024-01-25T00:29:46;8.30;99.90
13982;DHT22;7065;50.880;5.502;2024-01-25T00:32:12;8.30;99.90
13982;DHT22;7065;50.880;5.502;2024-01-25T00:34:37;8.30;99.90
13982;DHT22;7065;50.880;5.502;2024-01-25T00:37:03;8.20;99.90
13982;DHT22;7065;50.880;5.502;2024-01-25T00:39:29;8.20;99.90
13982;DHT22;7065;50.880;5.502;2024-01-25T00:42:01;8.10;99.90
13982;DHT22;7065;50.880;5.502;2024-01-25T00:44:29;8.10;99.90
13982;DHT22;7065;50.880;5.502;2024-01-25T00:46:55;8.10;99.90
13982;DHT22;7065;50.880;5.502;2024-01-25T00:49:21;8.10;99.90
13982;DHT22;7065;50.880;5.502;2024-01-25T00:51:48;8.10;99.90
13982;DHT22;7065;50.880;5.502;2024-01-25T00:54:16;8.00;99.90
13982;DHT22;7065;50.880;5.502;2024-01-25T00:56:42;8.10;99.90
13982;DHT22;7065;50.880;5.502;2024-01-25T00:59:08;8.10;99.90
13982;DHT22;7065;50.880;5.502;2024-01-25T01:01:34;8.10;99.90
13982;DHT22;7065;50.880;5.502;2024-01-25T01:04:00;8.10;99.90
13982;DHT22;7065;50.880;5.502;2024-01-25T01:06:26;8.10;99.90
13982;DHT22;7065;50.880;5.502;2024-01-25T01:08:52;8.10;99.90
13982;DHT22;7065;50.880;5.502;2024-01-25T01:11:18;8.10;99.90
13982;DHT22;7065;50.880;5.502;2024-01-25T01:13:44;8.10;99.90
13982;DHT22;7065;50.880;5.502;2024-01-25T01:16:10;8.00;99.90
13982;DHT22;7065;50.880;5.502;2024-01-25T01:18:36;8.00;99.90
13982;DHT22;7065;50.880;5.502;2024-01-25T01:21:04;7.90;99.90
13982;DHT22;7065;50.880;5.502;2024-01-25T01:23:29;8.00;99.90
13982;DHT22;7065;50.880;5.502;2024-01-25T01:25:55;8.00;99.90
13982;DHT22;7065;50.880;5.502;2024-01-25T01:28:21;8.00;99.90
13982;DHT22;7065;50.880;5.502;2024-01-25T01:30:46;7.90;99.90
13982;DHT22;7065;50.880;5.502;2024-01-25T01:33:12;7.90;99.90
13982;DHT22;7065;50.880;5.502;2024-01-25T01:35:38;7.90;99.90
13982;DHT22;7065;50.880;5.502;2024-01-25T01:38:03;7.80;99.90
13982;DHT22;7065;50.880;5.502;2024-01-25T01:40:29;7.70;99.90
13982;DHT22;7065;50.880;5.502;2024-01-25T01:43:01;7.70;99.90
13982;DHT22;7065;50.880;5.502;2024-01-25T01:45:27;7.70;99.90
13982;DHT22;7065;50.880;5.502;2024-01-25T01:47:55;7.60;99.90
13982;DHT22;7065;50.880;5.502;2024-01-25T01:50:21;7.60;99.90
13982;DHT22;7065;50.880;5.502;2024-01-25T01:52:49;7.50;99.90
13982;DHT22;7065;50.880;5.502;2024-01-25T01:55:16;7.50;99.90
13982;DHT22;7065;50.880;5.502;2024-01-25T01:57:41;7.40;99.90
13982;DHT22;7065;50.880;5.502;2024-01-25T02:00:08;7.40;99.90
13982;DHT22;7065;50.880;5.502;2024-01-25T02:02:35;7.40;99.90
13982;DHT22;7065;50.880;5.502;2024-01-25T02:05:01;7.30;99.90
13982;DHT22;7065;50.880;5.502;2024-01-25T02:07:28;7.30;99.90
13982;DHT22;7065;50.880;5.502;2024-01-25T02:09:53;7.30;99.90
13982;DHT22;7065;50.880;5.502;2024-01-25T02:12:19;7.30;99.90
13982;DHT22;7065;50.880;5.502;2024-01-25T02:14:45;7.30;99.90
13982;DHT22;7065;50.880;5.502;2024-01-25T02:17:11;7.20;99.90
13982;DHT22;7065;50.880;5.502;2024-01-25T02:19:37;7.20;99.90
13982;DHT22;7065;50.880;5.502;2024-01-25T02:22:05;7.10;99.90
13982;DHT22;7065;50.880;5.502;2024-01-25T02:24:31;7.10;99.90
13982;DHT22;7065;50.880;5.502;2024-01-25T02:26:57;7.10;99.90
13982;DHT22;7065;50.880;5.502;2024-01-25T02:29:23;7.10;99.90
13982;DHT22;7065;50.880;5.502;2024-01-25T02:31:49;7.00;99.90
13982;DHT22;7065;50.880;5.502;2024-01-25T02:34:15;7.00;99.90
13982;DHT22;7065;50.880;5.502;2024-01-25T02:36:40;7.00;99.90
13982;DHT22;7065;50.880;5.502;2024-01-25T02:39:06;7.00;99.90
13982;DHT22;7065;50.880;5.502;2024-01-25T02:41:32;7.00;99.90
13982;DHT22;7065;50.880;5.502;2024-01-25T02:43:59;6.80;99.90
13982;DHT22;7065;50.880;5.502;2024-01-25T02:46:25;6.80;99.90
13982;DHT22;7065;50.880;5.502;2024-01-25T02:48:50;6.80;99.90
13982;DHT22;7065;50.880;5.502;2024-01-25T02:51:16;6.70;99.90
13982;DHT22;7065;50.880;5.502;2024-01-25T02:53:42;6.70;99.90
13982;DHT22;7065;50.880;5.502;2024-01-25T02:56:07;6.60;99.90
13982;DHT22;7065;50.880;5.502;2024-01-25T02:58:33;6.60;99.90
13982;DHT22;7065;50.880;5.502;2024-01-25T03:01:00;6.50;99.90
13982;DHT22;7065;50.880;5.502;2024-01-25T03:03:26;6.50;99.90
13982;DHT22;7065;50.880;5.502;2024-01-25T03:05:52;6.40;99.90
13982;DHT22;7065;50.880;5.502;2024-01-25T03:08:18;6.40;99.90
13982;DHT22;7065;50.880;5.502;2024-01-25T03:10:44;6.40;99.90
13982;DHT22;7065;50.880;5.502;2024-01-25T03:13:09;6.40;99.90
13982;DHT22;7065;50.880;5.502;2024-01-25T03:15:35;6.30;99.90
13982;DHT22;7065;50.880;5.502;2024-01-25T03:18:01;6.30;99.90
13982;DHT22;7065;50.880;5.502;2024-01-25T03:20:27;6.20;99.90
13982;DHT22;7065;50.880;5.502;2024-01-25T03:22:52;6.20;99.90
13982;DHT22;7065;50.880;5.502;2024-01-25T03:25:19;6.20;99.90
13982;DHT22;7065;50.880;5.502;2024-01-25T03:27:45;6.20;99.90
13982;DHT22;7065;50.880;5.502;2024-01-25T03:30:11;6.20;99.90
13982;DHT22;7065;50.880;5.502;2024-01-25T03:32:37;6.20;99.90
13982;DHT22;7065;50.880;5.502;2024-01-25T03:35:02;6.10;99.90
13982;DHT22;7065;50.880;5.502;2024-01-25T03:37:28;6.00;99.90
13982;DHT22;7065;50.880;5.502;2024-01-25T03:39:54;6.00;99.90
13982;DHT22;7065;50.880;5.502;2024-01-25T03:42:19;5.90;99.90
13982;DHT22;7065;50.880;5.502;2024-01-25T03:44:45;5.90;99.90
13982;DHT22;7065;50.880;5.502;2024-01-25T03:47:11;5.90;99.90
13982;DHT22;7065;50.880;5.502;2024-01-25T03:49:37;5.90;99.90
13982;DHT22;7065;50.880;5.502;2024-01-25T03:52:04;5.90;99.90
13982;DHT22;7065;50.880;5.502;2024-01-25T03:54:30;5.80;99.90
13982;DHT22;7065;50.880;5.502;2024-01-25T03:56:56;5.80;99.90
13982;DHT22;7065;50.880;5.502;2024-01-25T03:59:21;5.70;99.90
13982;DHT22;7065;50.880;5.502;2024-01-25T04:01:48;5.60;99.90
13982;DHT22;7065;50.880;5.502;2024-01-25T04:04:14;5.50;99.90
13982;DHT22;7065;50.880;5.502;2024-01-25T04:06:43;5.40;99.90
13982;DHT22;7065;50.880;5.502;2024-01-25T04:09:09;5.30;99.90
13982;DHT22;7065;50.880;5.502;2024-01-25T04:11:36;5.30;99.90
13982;DHT22;7065;50.880;5.502;2024-01-25T04:14:02;5.20;99.90
13982;DHT22;7065;50.880;5.502;2024-01-25T04:16:28;5.20;99.90
13982;DHT22;7065;50.880;5.502;2024-01-25T04:18:54;5.10;99.90
13982;DHT22;7065;50.880;5.502;2024-01-25T04:21:19;5.20;99.90
13982;DHT22;7065;50.880;5.502;2024-01-25T04:23:45;5.30;99.90
13982;DHT22;7065;50.880;5.502;2024-01-25T04:26:10;5.40;99.90
13982;DHT22;7065;50.880;5.502;2024-01-25T04:28:37;5.50;99.90
13982;DHT22;7065;50.880;5.502;2024-01-25T04:31:03;5.50;99.90
13982;DHT22;7065;50.880;5.502;2024-01-25T04:33:29;5.50;99.90
13982;DHT22;7065;50.880;5.502;2024-01-25T04:35:55;5.50;99.90
13982;DHT22;7065;50.880;5.502;2024-01-25T04:38:21;5.60;99.90
13982;DHT22;7065;50.880;5.502;2024-01-25T04:40:47;5.60;99.90
13982;DHT22;7065;50.880;5.502;2024-01-25T04:43:13;5.50;99.90
13982;DHT22;7065;50.880;5.502;2024-01-25T04:45:39;5.60;99.90
13982;DHT22;7065;50.880;5.502;2024-01-25T04:48:05;5.60;99.90
13982;DHT22;7065;50.880;5.502;2024-01-25T04:50:31;5.60;99.90
13982;DHT22;7065;50.880;5.502;2024-01-25T04:52:57;5.60;99.90
13982;DHT22;7065;50.880;5.502;2024-01-25T04:55:22;5.60;99.90
13982;DHT22;7065;50.880;5.502;2024-01-25T04:57:48;5.60;99.90
13982;DHT22;7065;50.880;5.502;2024-01-25T05:00:19;5.60;99.90
13982;DHT22;7065;50.880;5.502;2024-01-25T05:02:44;5.50;99.90
13982;DHT22;7065;50.880;5.502;2024-01-25T05:05:10;5.50;99.90
13982;DHT22;7065;50.880;5.502;2024-01-25T05:07:35;5.50;99.90
13982;DHT22;7065;50.880;5.502;2024-01-25T05:10:02;5.50;99.90
13982;DHT22;7065;50.880;5.502;2024-01-25T05:12:28;5.50;99.90
13982;DHT22;7065;50.880;5.502;2024-01-25T05:14:53;5.40;99.90
13982;DHT22;7065;50.880;5.502;2024-01-25T05:17:19;5.50;99.90
13982;DHT22;7065;50.880;5.502;2024-01-25T05:19:45;5.50;99.90
13982;DHT22;7065;50.880;5.502;2024-01-25T05:22:11;5.50;99.90
13982;DHT22;7065;50.880;5.502;2024-01-25T05:24:36;5.50;99.90
13982;DHT22;7065;50.880;5.502;2024-01-25T05:27:02;5.60;99.90
13982;DHT22;7065;50.880;5.502;2024-01-25T05:29:28;5.60;99.90
13982;DHT22;7065;50.880;5.502;2024-01-25T05:31:54;5.50;99.90
13982;DHT22;7065;50.880;5.502;2024-01-25T05:34:19;5.50;99.90
13982;DHT22;7065;50.880;5.502;2024-01-25T05:36:45;5.50;99.90
13982;DHT22;7065;50.880;5.502;2024-01-25T05:39:10;5.40;99.90
13982;DHT22;7065;50.880;5.502;2024-01-25T05:41:38;5.40;99.90
13982;DHT22;7065;50.880;5.502;2024-01-25T05:44:04;5.40;99.90
13982;DHT22;7065;50.880;5.502;2024-01-25T05:46:30;5.30;99.90
13982;DHT22;7065;50.880;5.502;2024-01-25T05:48:56;5.30;99.90
13982;DHT22;7065;50.880;5.502;2024-01-25T05:51:22;5.30;99.90
13982;DHT22;7065;50.880;5.502;2024-01-25T05:53:47;5.30;99.90
13982;DHT22;7065;50.880;5.502;2024-01-25T05:56:13;5.30;99.90
13982;DHT22;7065;50.880;5.502;2024-01-25T05:58:39;5.20;99.90
13982;DHT22;7065;50.880;5.502;2024-01-25T06:01:07;5.20;99.90
13982;DHT22;7065;50.880;5.502;2024-01-25T06:03:33;5.20;99.90
13982;DHT22;7065;50.880;5.502;2024-01-25T06:05:58;5.10;99.90
13982;DHT22;7065;50.880;5.502;2024-01-25T06:08:24;5.20;99.90
13982;DHT22;7065;50.880;5.502;2024-01-25T06:10:50;5.20;99.90
13982;DHT22;7065;50.880;5.502;2024-01-25T06:13:15;5.20;99.90
13982;DHT22;7065;50.880;5.502;2024-01-25T06:15:41;5.20;99.90
13982;DHT22;7065;50.880;5.502;2024-01-25T06:18:07;5.10;99.90
13982;DHT22;7065;50.880;5.502;2024-01-25T06:20:32;5.00;99.90
13982;DHT22;7065;50.880;5.502;2024-01-25T06:22:58;5.00;99.90
13982;DHT22;7065;50.880;5.502;2024-01-25T06:25:24;5.00;99.90
13982;DHT22;7065;50.880;5.502;2024-01-25T06:27:50;4.90;99.90
13982;DHT22;7065;50.880;5.502;2024-01-25T06:30:16;4.90;99.90
13982;DHT22;7065;50.880;5.502;2024-01-25T06:32:41;4.90;99.90
13982;DHT22;7065;50.880;5.502;2024-01-25T06:35:07;4.80;99.90
13982;DHT22;7065;50.880;5.502;2024-01-25T06:37:33;4.80;99.90
13982;DHT22;7065;50.880;5.502;2024-01-25T06:39:59;4.90;99.90
13982;DHT22;7065;50.880;5.502;2024-01-25T06:42:25;4.90;99.90
13982;DHT22;7065;50.880;5.502;2024-01-25T06:44:51;4.90;99.90
13982;DHT22;7065;50.880;5.502;2024-01-25T06:47:17;4.80;99.90
13982;DHT22;7065;50.880;5.502;2024-01-25T06:49:42;4.70;99.90
13982;DHT22;7065;50.880;5.502;2024-01-25T06:52:08;4.70;99.90
13982;DHT22;7065;50.880;5.502;2024-01-25T06:54:33;4.70;99.90
13982;DHT22;7065;50.880;5.502;2024-01-25T06:56:59;4.80;99.90
13982;DHT22;7065;50.880;5.502;2024-01-25T06:59:25;4.80;99.90
13982;DHT22;7065;50.880;5.502;2024-01-25T07:01:50;4.80;99.90
13982;DHT22;7065;50.880;5.502;2024-01-25T07:04:16;4.70;99.90
13982;DHT22;7065;50.880;5.502;2024-01-25T07:06:42;4.50;99.90
13982;DHT22;7065;50.880;5.502;2024-01-25T07:09:08;4.40;99.90
13982;DHT22;7065;50.880;5.502;2024-01-25T07:11:34;4.20;99.90
13982;DHT22;7065;50.880;5.502;2024-01-25T07:13:59;4.20;99.90
13982;DHT22;7065;50.880;5.502;2024-01-25T07:16:25;4.30;99.90
13982;DHT22;7065;50.880;5.502;2024-01-25T07:18:50;4.30;99.90
13982;DHT22;7065;50.880;5.502;2024-01-25T07:21:17;4.30;99.90
13982;DHT22;7065;50.880;5.502;2024-01-25T07:23:42;4.20;99.90
13982;DHT22;7065;50.880;5.502;2024-01-25T07:26:08;4.10;99.90
13982;DHT22;7065;50.880;5.502;2024-01-25T07:28:34;4.10;99.90
13982;DHT22;7065;50.880;5.502;2024-01-25T07:30:59;4.00;99.90
13982;DHT22;7065;50.880;5.502;2024-01-25T07:33:25;3.90;99.90
13982;DHT22;7065;50.880;5.502;2024-01-25T07:35:51;4.00;99.90
13982;DHT22;7065;50.880;5.502;2024-01-25T07:38:16;4.00;99.90
13982;DHT22;7065;50.880;5.502;2024-01-25T07:40:42;4.00;99.90
13982;DHT22;7065;50.880;5.502;2024-01-25T07:43:08;4.00;99.90
13982;DHT22;7065;50.880;5.502;2024-01-25T07:45:34;4.00;99.90
13982;DHT22;7065;50.880;5.502;2024-01-25T07:48:00;4.00;99.90
13982;DHT22;7065;50.880;5.502;2024-01-25T07:50:26;4.00;99.90
13982;DHT22;7065;50.880;5.502;2024-01-25T07:52:54;4.10;99.90
13982;DHT22;7065;50.880;5.502;2024-01-25T07:55:20;4.20;99.90
13982;DHT22;7065;50.880;5.502;2024-01-25T07:57:46;4.20;99.90
13982;DHT22;7065;50.880;5.502;2024-01-25T08:00:11;4.30;99.90
13982;DHT22;7065;50.880;5.502;2024-01-25T08:02:38;4.40;99.90
13982;DHT22;7065;50.880;5.502;2024-01-25T08:05:05;4.40;99.90
13982;DHT22;7065;50.880;5.502;2024-01-25T08:07:31;4.50;99.90
13982;DHT22;7065;50.880;5.502;2024-01-25T08:09:58;4.50;99.90
13982;DHT22;7065;50.880;5.502;2024-01-25T08:12:26;4.60;99.90
13982;DHT22;7065;50.880;5.502;2024-01-25T08:14:52;4.60;99.90
13982;DHT22;7065;50.880;5.502;2024-01-25T08:17:18;4.60;99.90
13982;DHT22;7065;50.880;5.502;2024-01-25T08:19:45;4.60;99.90
13982;DHT22;7065;50.880;5.502;2024-01-25T08:22:11;4.70;99.90
13982;DHT22;7065;50.880;5.502;2024-01-25T08:24:38;4.70;99.90
13982;DHT22;7065;50.880;5.502;2024-01-25T08:27:04;4.80;99.90
13982;DHT22;7065;50.880;5.502;2024-01-25T08:29:30;4.90;99.90
13982;DHT22;7065;50.880;5.502;2024-01-25T08:31:56;5.00;99.90
13982;DHT22;7065;50.880;5.502;2024-01-25T08:34:22;5.10;99.90
13982;DHT22;7065;50.880;5.502;2024-01-25T08:36:48;5.20;99.90
13982;DHT22;7065;50.880;5.502;2024-01-25T08:39:13;5.20;99.90
13982;DHT22;7065;50.880;5.502;2024-01-25T08:41:41;5.30;99.90
13982;DHT22;7065;50.880;5.502;2024-01-25T08:44:07;5.30;99.90
13982;DHT22;7065;50.880;5.502;2024-01-25T08:46:33;5.40;99.90
13982;DHT22;7065;50.880;5.502;2024-01-25T08:48:59;5.50;99.90
13982;DHT22;7065;50.880;5.502;2024-01-25T08:51:24;5.50;99.90
13982;DHT22;7065;50.880;5.502;2024-01-25T08:53:50;5.60;99.90
13982;DHT22;7065;50.880;5.502;2024-01-25T08:56:17;5.60;99.90
13982;DHT22;7065;50.880;5.502;2024-01-25T08:58:42;5.70;99.90
13982;DHT22;7065;50.880;5.502;2024-01-25T09:01:08;5.70;99.90
13982;DHT22;7065;50.880;5.502;2024-01-25T09:03:34;5.70;99.90
13982;DHT22;7065;50.880;5.502;2024-01-25T09:05:59;5.80;99.90
13982;DHT22;7065;50.880;5.502;2024-01-25T09:08:31;5.80;99.90
13982;DHT22;7065;50.880;5.502;2024-01-25T09:10:58;5.90;99.90
13982;DHT22;7065;50.880;5.502;2024-01-25T09:13:23;6.00;99.90
13982;DHT22;7065;50.880;5.502;2024-01-25T09:15:49;6.10;99.90
13982;DHT22;7065;50.880;5.502;2024-01-25T09:18:15;6.10;99.90
13982;DHT22;7065;50.880;5.502;2024-01-25T09:20:42;6.20;99.90
13982;DHT22;7065;50.880;5.502;2024-01-25T09:23:13;6.30;99.90
13982;DHT22;7065;50.880;5.502;2024-01-25T09:25:39;6.30;99.90
13982;DHT22;7065;50.880;5.502;2024-01-25T09:28:04;6.40;99.90
13982;DHT22;7065;50.880;5.502;2024-01-25T09:30:30;6.40;99.90
13982;DHT22;7065;50.880;5.502;2024-01-25T09:32:56;6.40;99.90
13982;DHT22;7065;50.880;5.502;2024-01-25T09:35:21;6.50;99.90
13982;DHT22;7065;50.880;5.502;2024-01-25T09:37:47;6.50;99.90
13982;DHT22;7065;50.880;5.502;2024-01-25T09:40:13;6.60;99.90
13982;DHT22;7065;50.880;5.502;2024-01-25T09:42:39;6.60;99.90
13982;DHT22;7065;50.880;5.502;2024-01-25T09:45:06;6.70;99.90
13982;DHT22;7065;50.880;5.502;2024-01-25T09:47:33;6.70;99.90
13982;DHT22;7065;50.880;5.502;2024-01-25T09:49:59;6.80;99.90
13982;DHT22;7065;50.880;5.502;2024-01-25T09:52:25;6.80;99.90
13982;DHT22;7065;50.880;5.502;2024-01-25T09:54:53;6.90;99.90
13982;DHT22;7065;50.880;5.502;2024-01-25T09:57:23;7.00;99.90
13982;DHT22;7065;50.880;5.502;2024-01-25T09:59:50;7.00;99.90
13982;DHT22;7065;50.880;5.502;2024-01-25T10:02:20;7.00;99.90
13982;DHT22;7065;50.880;5.502;2024-01-25T10:04:50;7.10;99.90
13982;DHT22;7065;50.880;5.502;2024-01-25T10:10:04;7.10;99.90
13982;DHT22;7065;50.880;5.502;2024-01-25T10:12:31;7.10;99.90
13982;DHT22;7065;50.880;5.502;2024-01-25T10:14:57;7.20;99.90
13982;DHT22;7065;50.880;5.502;2024-01-25T10:17:23;7.20;99.90
13982;DHT22;7065;50.880;5.502;2024-01-25T10:19:49;7.20;99.90
13982;DHT22;7065;50.880;5.502;2024-01-25T10:22:15;7.30;99.90
13982;DHT22;7065;50.880;5.502;2024-01-25T10:24:41;7.30;99.90
13982;DHT22;7065;50.880;5.502;2024-01-25T10:27:08;7.30;99.90
13982;DHT22;7065;50.880;5.502;2024-01-25T10:29:37;7.40;99.90
13982;DHT22;7065;50.880;5.502;2024-01-25T10:32:04;7.50;99.90
13982;DHT22;7065;50.880;5.502;2024-01-25T10:34:30;7.50;99.90
13982;DHT22;7065;50.880;5.502;2024-01-25T10:36:57;7.60;99.90
13982;DHT22;7065;50.880;5.502;2024-01-25T10:39:24;7.70;99.90
13982;DHT22;7065;50.880;5.502;2024-01-25T10:41:50;7.70;99.90
13982;DHT22;7065;50.880;5.502;2024-01-25T10:44:19;7.80;99.90
13982;DHT22;7065;50.880;5.502;2024-01-25T10:46:48;7.80;99.90
13982;DHT22;7065;50.880;5.502;2024-01-25T10:49:14;7.90;99.90
13982;DHT22;7065;50.880;5.502;2024-01-25T10:51:41;7.90;99.90
13982;DHT22;7065;50.880;5.502;2024-01-25T10:54:14;7.90;99.90
13982;DHT22;7065;50.880;5.502;2024-01-25T10:56:46;8.00;99.90
13982;DHT22;7065;50.880;5.502;2024-01-25T10:59:13;8.00;99.90
13982;DHT22;7065;50.880;5.502;2024-01-25T11:01:43;8.00;99.90
13982;DHT22;7065;50.880;5.502;2024-01-25T11:04:16;8.00;99.90
13982;DHT22;7065;50.880;5.502;2024-01-25T11:06:44;8.10;99.90
13982;DHT22;7065;50.880;5.502;2024-01-25T11:09:16;8.20;99.90
13982;DHT22;7065;50.880;5.502;2024-01-25T11:11:44;8.20;99.90
13982;DHT22;7065;50.880;5.502;2024-01-25T11:14:12;8.30;99.90
13982;DHT22;7065;50.880;5.502;2024-01-25T11:16:39;8.30;99.90
13982;DHT22;7065;50.880;5.502;2024-01-25T11:19:07;8.40;99.90
13982;DHT22;7065;50.880;5.502;2024-01-25T11:21:45;8.40;99.90
13982;DHT22;7065;50.880;5.502;2024-01-25T11:24:23;8.50;99.90
13982;DHT22;7065;50.880;5.502;2024-01-25T11:26:51;8.60;99.90
13982;DHT22;7065;50.880;5.502;2024-01-25T11:29:18;8.70;99.90
13982;DHT22;7065;50.880;5.502;2024-01-25T11:31:46;8.70;99.90
13982;DHT22;7065;50.880;5.502;2024-01-25T11:34:13;8.70;99.90
13982;DHT22;7065;50.880;5.502;2024-01-25T11:36:39;8.80;99.90
13982;DHT22;7065;50.880;5.502;2024-01-25T11:39:05;8.80;99.90
13982;DHT22;7065;50.880;5.502;2024-01-25T11:41:32;8.90;99.90
13982;DHT22;7065;50.880;5.502;2024-01-25T11:43:58;8.90;99.90
13982;DHT22;7065;50.880;5.502;2024-01-25T11:46:25;8.90;99.90
13982;DHT22;7065;50.880;5.502;2024-01-25T11:48:51;9.00;99.90
13982;DHT22;7065;50.880;5.502;2024-01-25T11:51:17;9.10;99.90
13982;DHT22;7065;50.880;5.502;2024-01-25T11:53:43;9.10;99.90
13982;DHT22;7065;50.880;5.502;2024-01-25T11:56:21;9.20;99.90
13982;DHT22;7065;50.880;5.502;2024-01-25T11:58:48;9.20;99.90
13982;DHT22;7065;50.880;5.502;2024-01-25T12:01:15;9.30;99.90
13982;DHT22;7065;50.880;5.502;2024-01-25T12:03:42;9.40;99.90
13982;DHT22;7065;50.880;5.502;2024-01-25T12:06:08;9.30;99.90
13982;DHT22;7065;50.880;5.502;2024-01-25T12:08:35;9.40;99.90
13982;DHT22;7065;50.880;5.502;2024-01-25T12:11:07;9.40;99.90
13982;DHT22;7065;50.880;5.502;2024-01-25T12:13:40;9.40;99.90
13982;DHT22;7065;50.880;5.502;2024-01-25T12:16:07;9.50;99.90
13982;DHT22;7065;50.880;5.502;2024-01-25T12:18:33;9.50;99.90
13982;DHT22;7065;50.880;5.502;2024-01-25T12:21:01;9.50;99.90
13982;DHT22;7065;50.880;5.502;2024-01-25T12:23:38;9.60;99.90
13982;DHT22;7065;50.880;5.502;2024-01-25T12:26:05;9.60;99.90
13982;DHT22;7065;50.880;5.502;2024-01-25T12:28:32;9.60;99.90
13982;DHT22;7065;50.880;5.502;2024-01-25T12:31:02;9.70;99.90
13982;DHT22;7065;50.880;5.502;2024-01-25T12:33:31;9.80;99.90
13982;DHT22;7065;50.880;5.502;2024-01-25T12:35:58;9.80;99.90
13982;DHT22;7065;50.880;5.502;2024-01-25T12:38:24;9.90;99.90
13982;DHT22;7065;50.880;5.502;2024-01-25T12:40:51;9.90;99.90
13982;DHT22;7065;50.880;5.502;2024-01-25T12:43:18;9.90;99.90
13982;DHT22;7065;50.880;5.502;2024-01-25T12:45:44;9.90;99.90
13982;DHT22;7065;50.880;5.502;2024-01-25T12:48:10;9.90;99.90
13982;DHT22;7065;50.880;5.502;2024-01-25T12:50:37;9.90;99.90
13982;DHT22;7065;50.880;5.502;2024-01-25T12:53:03;10.00;99.90
13982;DHT22;7065;50.880;5.502;2024-01-25T12:55:30;10.00;99.90
13982;DHT22;7065;50.880;5.502;2024-01-25T12:57:56;10.00;99.90
13982;DHT22;7065;50.880;5.502;2024-01-25T13:00:22;10.00;99.90
13982;DHT22;7065;50.880;5.502;2024-01-25T13:02:48;9.90;99.90
13982;DHT22;7065;50.880;5.502;2024-01-25T13:05:14;9.90;99.90
13982;DHT22;7065;50.880;5.502;2024-01-25T13:07:40;9.90;99.90
13982;DHT22;7065;50.880;5.502;2024-01-25T13:10:08;9.90;99.90
13982;DHT22;7065;50.880;5.502;2024-01-25T13:12:34;9.80;99.90
13982;DHT22;7065;50.880;5.502;2024-01-25T13:15:00;9.90;99.90
13982;DHT22;7065;50.880;5.502;2024-01-25T13:17:25;9.70;99.90
13982;DHT22;7065;50.880;5.502;2024-01-25T13:19:53;9.60;99.90
13982;DHT22;7065;50.880;5.502;2024-01-25T13:22:19;9.50;99.90
13982;DHT22;7065;50.880;5.502;2024-01-25T13:24:47;9.40;99.90
13982;DHT22;7065;50.880;5.502;2024-01-25T13:27:13;9.40;99.90
13982;DHT22;7065;50.880;5.502;2024-01-25T13:29:38;9.40;99.90
13982;DHT22;7065;50.880;5.502;2024-01-25T13:32:04;9.30;99.90
13982;DHT22;7065;50.880;5.502;2024-01-25T13:34:30;9.30;99.90
13982;DHT22;7065;50.880;5.502;2024-01-25T13:36:55;9.30;99.90
13982;DHT22;7065;50.880;5.502;2024-01-25T13:39:21;9.30;99.90
13982;DHT22;7065;50.880;5.502;2024-01-25T13:41:47;9.20;99.90
13982;DHT22;7065;50.880;5.502;2024-01-25T13:44:14;9.20;99.90
13982;DHT22;7065;50.880;5.502;2024-01-25T13:46:40;9.20;99.90
13982;DHT22;7065;50.880;5.502;2024-01-25T13:49:06;9.20;99.90
13982;DHT22;7065;50.880;5.502;2024-01-25T13:51:32;9.20;99.90
13982;DHT22;7065;50.880;5.502;2024-01-25T13:53:57;9.20;99.90
13982;DHT22;7065;50.880;5.502;2024-01-25T13:56:23;9.20;99.90
13982;DHT22;7065;50.880;5.502;2024-01-25T13:58:49;9.20;99.90
13982;DHT22;7065;50.880;5.502;2024-01-25T14:01:15;9.20;99.90
13982;DHT22;7065;50.880;5.502;2024-01-25T14:03:40;9.20;99.90
13982;DHT22;7065;50.880;5.502;2024-01-25T14:06:06;9.20;99.90
13982;DHT22;7065;50.880;5.502;2024-01-25T14:08:35;9.20;99.90
13982;DHT22;7065;50.880;5.502;2024-01-25T14:11:01;9.20;99.90
13982;DHT22;7065;50.880;5.502;2024-01-25T14:13:27;9.20;99.90
13982;DHT22;7065;50.880;5.502;2024-01-25T14:15:53;9.20;99.90
13982;DHT22;7065;50.880;5.502;2024-01-25T14:18:18;9.20;99.90
13982;DHT22;7065;50.880;5.502;2024-01-25T14:20:44;9.20;99.90
13982;DHT22;7065;50.880;5.502;2024-01-25T14:23:10;9.20;99.90
13982;DHT22;7065;50.880;5.502;2024-01-25T14:25:35;9.20;99.90
13982;DHT22;7065;50.880;5.502;2024-01-25T14:28:02;9.20;99.90
13982;DHT22;7065;50.880;5.502;2024-01-25T14:30:28;9.10;99.90
13982;DHT22;7065;50.880;5.502;2024-01-25T14:32:55;9.10;99.90
13982;DHT22;7065;50.880;5.502;2024-01-25T14:35:23;9.10;99.90
13982;DHT22;7065;50.880;5.502;2024-01-25T14:37:54;9.10;99.90
13982;DHT22;7065;50.880;5.502;2024-01-25T14:40:21;9.10;99.90
13982;DHT22;7065;50.880;5.502;2024-01-25T14:42:47;9.10;99.90
13982;DHT22;7065;50.880;5.502;2024-01-25T14:45:13;9.10;99.90
13982;DHT22;7065;50.880;5.502;2024-01-25T14:47:38;9.10;99.90
13982;DHT22;7065;50.880;5.502;2024-01-25T14:50:05;9.10;99.90
13982;DHT22;7065;50.880;5.502;2024-01-25T14:52:31;9.20;99.90
13982;DHT22;7065;50.880;5.502;2024-01-25T14:55:00;9.10;99.90
13982;DHT22;7065;50.880;5.502;2024-01-25T14:57:26;9.10;99.90
13982;DHT22;7065;50.880;5.502;2024-01-25T14:59:52;9.20;99.90
13982;DHT22;7065;50.880;5.502;2024-01-25T15:02:17;9.20;99.90
13982;DHT22;7065;50.880;5.502;2024-01-25T15:04:44;9.20;99.90
13982;DHT22;7065;50.880;5.502;2024-01-25T15:07:10;9.20;99.90
13982;DHT22;7065;50.880;5.502;2024-01-25T15:09:36;9.20;99.90
13982;DHT22;7065;50.880;5.502;2024-01-25T15:12:03;9.20;99.90
13982;DHT22;7065;50.880;5.502;2024-01-25T15:14:28;9.20;99.90
13982;DHT22;7065;50.880;5.502;2024-01-25T15:16:54;9.20;99.90
13982;DHT22;7065;50.880;5.502;2024-01-25T15:19:20;9.20;99.90
13982;DHT22;7065;50.880;5.502;2024-01-25T15:21:46;9.20;99.90
13982;DHT22;7065;50.880;5.502;2024-01-25T15:24:11;9.20;99.90
13982;DHT22;7065;50.880;5.502;2024-01-25T15:26:42;9.20;99.90
13982;DHT22;7065;50.880;5.502;2024-01-25T15:29:09;9.30;99.90
13982;DHT22;7065;50.880;5.502;2024-01-25T15:31:34;9.20;99.90
13982;DHT22;7065;50.880;5.502;2024-01-25T15:34:00;9.20;99.90
13982;DHT22;7065;50.880;5.502;2024-01-25T15:36:26;9.20;99.90
13982;DHT22;7065;50.880;5.502;2024-01-25T15:38:51;9.20;99.90
13982;DHT22;7065;50.880;5.502;2024-01-25T15:41:17;9.30;99.90
13982;DHT22;7065;50.880;5.502;2024-01-25T15:43:47;9.30;99.90
13982;DHT22;7065;50.880;5.502;2024-01-25T15:46:12;9.20;99.90
13982;DHT22;7065;50.880;5.502;2024-01-25T15:48:39;9.20;99.90
13982;DHT22;7065;50.880;5.502;2024-01-25T15:51:04;9.20;99.90
13982;DHT22;7065;50.880;5.502;2024-01-25T15:53:30;9.20;99.90
13982;DHT22;7065;50.880;5.502;2024-01-25T15:55:56;9.20;99.90
13982;DHT22;7065;50.880;5.502;2024-01-25T15:58:23;9.20;99.90